sensor_id;sensor_type;location;lat;lon;timestamp;P1;durP1;ratioP1;P2;durP2;ratioP2
80255;SDS011;69564;37.974;23.708;2023-04-25T00:02:20;5.60;;;4.88;;
80255;SDS011;69564;37.974;23.708;2023-04-25T00:04:47;6.70;;;5.72;;
80255;SDS011;69564;37.974;23.708;2023-04-25T00:07:14;5.72;;;4.50;;
80255;SDS011;69564;37.974;23.708;2023-04-25T00:09:41;5.35;;;4.93;;
80255;SDS011;69564;37.974;23.708;2023-04-25T00:12:07;7.18;;;5.45;;
80255;SDS011;69564;37.974;23.708;2023-04-25T00:14:33;7.07;;;5.22;;
80255;SDS011;69564;37.974;23.708;2023-04-25T00:16:59;7.10;;;4.82;;
80255;SDS011;69564;37.974;23.708;2023-04-25T00:19:25;5.55;;;5.05;;
80255;SDS011;69564;37.974;23.708;2023-04-25T00:21:54;5.72;;;5.18;;
80255;SDS011;69564;37.974;23.708;2023-04-25T00:24:20;6.95;;;5.22;;
80255;SDS011;69564;37.974;23.708;2023-04-25T00:26:46;4.88;;;4.47;;
80255;SDS011;69564;37.974;23.708;2023-04-25T00:29:12;5.05;;;4.55;;
80255;SDS011;69564;37.974;23.708;2023-04-25T00:31:38;5.43;;;4.90;;
80255;SDS011;69564;37.974;23.708;2023-04-25T00:34:03;5.55;;;5.03;;
80255;SDS011;69564;37.974;23.708;2023-04-25T00:36:29;4.72;;;4.32;;
80255;SDS011;69564;37.974;23.708;2023-04-25T00:38:55;6.07;;;5.28;;
80255;SDS011;69564;37.974;23.708;2023-04-25T00:41:21;5.65;;;4.25;;
80255;SDS011;69564;37.974;23.708;2023-04-25T00:43:48;5.43;;;4.93;;
80255;SDS011;69564;37.974;23.708;2023-04-25T00:46:14;5.85;;;4.50;;
80255;SDS011;69564;37.974;23.708;2023-04-25T00:48:39;5.10;;;4.60;;
80255;SDS011;69564;37.974;23.708;2023-04-25T00:51:05;5.68;;;4.90;;
80255;SDS011;69564;37.974;23.708;2023-04-25T00:53:31;5.20;;;4.70;;
80255;SDS011;69564;37.974;23.708;2023-04-25T00:55:57;5.03;;;4.55;;
80255;SDS011;69564;37.974;23.708;2023-04-25T00:58:24;5.07;;;4.57;;
80255;SDS011;69564;37.974;23.708;2023-04-25T01:00:50;5.03;;;4.65;;
80255;SDS011;69564;37.974;23.708;2023-04-25T01:03:17;5.50;;;5.00;;
80255;SDS011;69564;37.974;23.708;2023-04-25T01:05:46;4.88;;;4.47;;
80255;SDS011;69564;37.974;23.708;2023-04-25T01:08:13;5.55;;;5.05;;
80255;SDS011;69564;37.974;23.708;2023-04-25T01:10:39;5.60;;;4.57;;
80255;SDS011;69564;37.974;23.708;2023-04-25T01:13:05;6.18;;;4.88;;
80255;SDS011;69564;37.974;23.708;2023-04-25T01:15:31;5.07;;;4.57;;
80255;SDS011;69564;37.974;23.708;2023-04-25T01:17:57;6.00;;;4.68;;
80255;SDS011;69564;37.974;23.708;2023-04-25T01:20:25;5.25;;;4.75;;
80255;SDS011;69564;37.974;23.708;2023-04-25T01:22:53;6.93;;;4.90;;
80255;SDS011;69564;37.974;23.708;2023-04-25T01:25:20;5.10;;;4.60;;
80255;SDS011;69564;37.974;23.708;2023-04-25T01:27:47;5.10;;;4.60;;
80255;SDS011;69564;37.974;23.708;2023-04-25T01:30:13;5.10;;;4.57;;
80255;SDS011;69564;37.974;23.708;2023-04-25T01:32:39;5.78;;;4.88;;
80255;SDS011;69564;37.974;23.708;2023-04-25T01:35:11;5.00;;;4.60;;
80255;SDS011;69564;37.974;23.708;2023-04-25T01:37:37;5.55;;;4.85;;
80255;SDS011;69564;37.974;23.708;2023-04-25T01:40:04;4.88;;;4.47;;
80255;SDS011;69564;37.974;23.708;2023-04-25T01:42:32;4.97;;;4.47;;
80255;SDS011;69564;37.974;23.708;2023-04-25T01:44:59;5.40;;;4.95;;
80255;SDS011;69564;37.974;23.708;2023-04-25T01:47:24;5.45;;;4.57;;
80255;SDS011;69564;37.974;23.708;2023-04-25T01:49:50;4.80;;;4.38;;
80255;SDS011;69564;37.974;23.708;2023-04-25T01:52:16;5.05;;;4.60;;
80255;SDS011;69564;37.974;23.708;2023-04-25T01:54:42;4.70;;;4.20;;
80255;SDS011;69564;37.974;23.708;2023-04-25T01:57:12;5.18;;;4.68;;
80255;SDS011;69564;37.974;23.708;2023-04-25T01:59:39;5.30;;;4.47;;
80255;SDS011;69564;37.974;23.708;2023-04-25T02:02:06;4.50;;;4.18;;
80255;SDS011;69564;37.974;23.708;2023-04-25T02:04:32;5.32;;;4.20;;
80255;SDS011;69564;37.974;23.708;2023-04-25T02:06:58;5.07;;;4.57;;
80255;SDS011;69564;37.974;23.708;2023-04-25T02:09:24;5.63;;;5.13;;
80255;SDS011;69564;37.974;23.708;2023-04-25T02:11:50;4.97;;;4.57;;
80255;SDS011;69564;37.974;23.708;2023-04-25T02:14:15;5.25;;;4.55;;
80255;SDS011;69564;37.974;23.708;2023-04-25T02:16:41;5.22;;;3.90;;
80255;SDS011;69564;37.974;23.708;2023-04-25T02:19:09;8.05;;;4.38;;
80255;SDS011;69564;37.974;23.708;2023-04-25T02:21:35;6.35;;;4.07;;
80255;SDS011;69564;37.974;23.708;2023-04-25T02:24:01;4.63;;;4.22;;
80255;SDS011;69564;37.974;23.708;2023-04-25T02:26:27;4.85;;;4.43;;
80255;SDS011;69564;37.974;23.708;2023-04-25T02:28:53;4.90;;;4.40;;
80255;SDS011;69564;37.974;23.708;2023-04-25T02:31:19;5.25;;;4.43;;
80255;SDS011;69564;37.974;23.708;2023-04-25T02:33:44;4.25;;;3.85;;
80255;SDS011;69564;37.974;23.708;2023-04-25T02:36:10;6.45;;;4.50;;
80255;SDS011;69564;37.974;23.708;2023-04-25T02:38:36;4.35;;;3.72;;
80255;SDS011;69564;37.974;23.708;2023-04-25T02:41:02;5.15;;;4.15;;
80255;SDS011;69564;37.974;23.708;2023-04-25T02:43:27;5.32;;;4.85;;
80255;SDS011;69564;37.974;23.708;2023-04-25T02:45:53;5.68;;;4.70;;
80255;SDS011;69564;37.974;23.708;2023-04-25T02:48:19;5.75;;;4.43;;
80255;SDS011;69564;37.974;23.708;2023-04-25T02:50:45;5.03;;;4.15;;
80255;SDS011;69564;37.974;23.708;2023-04-25T02:53:10;6.07;;;4.85;;
80255;SDS011;69564;37.974;23.708;2023-04-25T02:55:36;5.72;;;4.55;;
80255;SDS011;69564;37.974;23.708;2023-04-25T02:58:02;6.25;;;4.63;;
80255;SDS011;69564;37.974;23.708;2023-04-25T03:00:28;4.60;;;4.15;;
80255;SDS011;69564;37.974;23.708;2023-04-25T03:02:54;5.88;;;4.93;;
80255;SDS011;69564;37.974;23.708;2023-04-25T03:05:20;6.82;;;4.97;;
80255;SDS011;69564;37.974;23.708;2023-04-25T03:07:46;7.57;;;4.28;;
80255;SDS011;69564;37.974;23.708;2023-04-25T03:10:12;6.97;;;4.68;;
80255;SDS011;69564;37.974;23.708;2023-04-25T03:12:37;5.38;;;4.80;;
80255;SDS011;69564;37.974;23.708;2023-04-25T03:15:03;4.93;;;4.43;;
80255;SDS011;69564;37.974;23.708;2023-04-25T03:17:29;5.05;;;4.50;;
80255;SDS011;69564;37.974;23.708;2023-04-25T03:19:55;5.60;;;5.03;;
80255;SDS011;69564;37.974;23.708;2023-04-25T03:22:22;5.35;;;4.40;;
80255;SDS011;69564;37.974;23.708;2023-04-25T03:24:48;9.82;;;4.82;;
80255;SDS011;69564;37.974;23.708;2023-04-25T03:27:14;5.03;;;4.53;;
80255;SDS011;69564;37.974;23.708;2023-04-25T03:29:40;5.65;;;4.45;;
80255;SDS011;69564;37.974;23.708;2023-04-25T03:32:06;5.80;;;3.97;;
80255;SDS011;69564;37.974;23.708;2023-04-25T03:34:32;4.95;;;4.43;;
80255;SDS011;69564;37.974;23.708;2023-04-25T03:36:57;7.65;;;4.43;;
80255;SDS011;69564;37.974;23.708;2023-04-25T03:39:25;7.28;;;4.82;;
80255;SDS011;69564;37.974;23.708;2023-04-25T03:41:50;6.20;;;4.80;;
80255;SDS011;69564;37.974;23.708;2023-04-25T03:44:16;5.13;;;4.63;;
80255;SDS011;69564;37.974;23.708;2023-04-25T03:46:42;6.13;;;4.60;;
80255;SDS011;69564;37.974;23.708;2023-04-25T03:49:08;6.00;;;4.47;;
80255;SDS011;69564;37.974;23.708;2023-04-25T03:51:33;7.38;;;4.60;;
80255;SDS011;69564;37.974;23.708;2023-04-25T03:53:59;6.13;;;4.72;;
80255;SDS011;69564;37.974;23.708;2023-04-25T03:56:25;5.47;;;4.40;;
80255;SDS011;69564;37.974;23.708;2023-04-25T03:58:51;8.20;;;4.47;;
80255;SDS011;69564;37.974;23.708;2023-04-25T04:01:16;12.40;;;4.95;;
80255;SDS011;69564;37.974;23.708;2023-04-25T04:03:42;8.38;;;5.38;;
80255;SDS011;69564;37.974;23.708;2023-04-25T04:06:08;7.72;;;4.60;;
80255;SDS011;69564;37.974;23.708;2023-04-25T04:08:34;9.15;;;4.68;;
80255;SDS011;69564;37.974;23.708;2023-04-25T04:11:00;8.98;;;4.88;;
80255;SDS011;69564;37.974;23.708;2023-04-25T04:13:26;13.55;;;5.50;;
80255;SDS011;69564;37.974;23.708;2023-04-25T04:15:53;8.15;;;4.97;;
80255;SDS011;69564;37.974;23.708;2023-04-25T04:18:19;12.68;;;5.18;;
80255;SDS011;69564;37.974;23.708;2023-04-25T04:20:45;14.90;;;5.25;;
80255;SDS011;69564;37.974;23.708;2023-04-25T04:23:11;16.73;;;5.60;;
80255;SDS011;69564;37.974;23.708;2023-04-25T04:25:37;17.40;;;5.50;;
80255;SDS011;69564;37.974;23.708;2023-04-25T04:28:04;13.63;;;4.88;;
80255;SDS011;69564;37.974;23.708;2023-04-25T04:30:31;14.05;;;5.03;;
80255;SDS011;69564;37.974;23.708;2023-04-25T04:32:58;8.45;;;5.28;;
80255;SDS011;69564;37.974;23.708;2023-04-25T04:35:24;8.70;;;4.55;;
80255;SDS011;69564;37.974;23.708;2023-04-25T04:37:50;10.57;;;5.32;;
80255;SDS011;69564;37.974;23.708;2023-04-25T04:40:16;14.48;;;5.03;;
80255;SDS011;69564;37.974;23.708;2023-04-25T04:42:43;11.05;;;4.80;;
80255;SDS011;69564;37.974;23.708;2023-04-25T04:45:13;10.55;;;5.65;;
80255;SDS011;69564;37.974;23.708;2023-04-25T04:47:39;12.18;;;5.60;;
80255;SDS011;69564;37.974;23.708;2023-04-25T04:50:08;11.48;;;5.35;;
80255;SDS011;69564;37.974;23.708;2023-04-25T04:52:35;8.77;;;4.53;;
80255;SDS011;69564;37.974;23.708;2023-04-25T04:55:02;7.00;;;4.68;;
80255;SDS011;69564;37.974;23.708;2023-04-25T04:57:29;7.65;;;4.65;;
80255;SDS011;69564;37.974;23.708;2023-04-25T04:59:56;6.38;;;4.47;;
80255;SDS011;69564;37.974;23.708;2023-04-25T05:02:22;8.30;;;4.63;;
80255;SDS011;69564;37.974;23.708;2023-04-25T05:04:47;4.95;;;4.18;;
80255;SDS011;69564;37.974;23.708;2023-04-25T05:07:13;7.13;;;5.03;;
80255;SDS011;69564;37.974;23.708;2023-04-25T05:09:39;6.85;;;4.85;;
80255;SDS011;69564;37.974;23.708;2023-04-25T05:12:04;7.68;;;4.78;;
80255;SDS011;69564;37.974;23.708;2023-04-25T05:14:30;6.07;;;4.60;;
80255;SDS011;69564;37.974;23.708;2023-04-25T05:16:56;5.80;;;4.57;;
80255;SDS011;69564;37.974;23.708;2023-04-25T05:19:23;7.47;;;4.88;;
80255;SDS011;69564;37.974;23.708;2023-04-25T05:21:49;9.40;;;5.35;;
80255;SDS011;69564;37.974;23.708;2023-04-25T05:24:14;7.03;;;4.68;;
80255;SDS011;69564;37.974;23.708;2023-04-25T05:26:40;6.85;;;5.18;;
80255;SDS011;69564;37.974;23.708;2023-04-25T05:29:06;7.65;;;5.40;;
80255;SDS011;69564;37.974;23.708;2023-04-25T05:31:32;8.88;;;5.10;;
80255;SDS011;69564;37.974;23.708;2023-04-25T05:33:58;8.13;;;5.63;;
80255;SDS011;69564;37.974;23.708;2023-04-25T05:36:24;5.32;;;4.80;;
80255;SDS011;69564;37.974;23.708;2023-04-25T05:38:50;5.25;;;4.68;;
80255;SDS011;69564;37.974;23.708;2023-04-25T05:41:16;7.03;;;4.78;;
80255;SDS011;69564;37.974;23.708;2023-04-25T05:43:42;6.55;;;4.28;;
80255;SDS011;69564;37.974;23.708;2023-04-25T05:46:11;6.07;;;4.32;;
80255;SDS011;69564;37.974;23.708;2023-04-25T05:48:38;5.70;;;4.00;;
80255;SDS011;69564;37.974;23.708;2023-04-25T05:51:04;7.25;;;4.43;;
80255;SDS011;69564;37.974;23.708;2023-04-25T05:53:30;5.20;;;4.15;;
80255;SDS011;69564;37.974;23.708;2023-04-25T05:55:56;3.92;;;3.63;;
80255;SDS011;69564;37.974;23.708;2023-04-25T05:58:21;6.68;;;3.80;;
80255;SDS011;69564;37.974;23.708;2023-04-25T06:00:47;4.65;;;3.75;;
80255;SDS011;69564;37.974;23.708;2023-04-25T06:03:13;4.72;;;3.38;;
80255;SDS011;69564;37.974;23.708;2023-04-25T06:05:42;3.53;;;3.22;;
80255;SDS011;69564;37.974;23.708;2023-04-25T06:08:08;6.20;;;3.47;;
80255;SDS011;69564;37.974;23.708;2023-04-25T06:10:35;4.40;;;3.30;;
80255;SDS011;69564;37.974;23.708;2023-04-25T06:13:01;3.55;;;3.00;;
80255;SDS011;69564;37.974;23.708;2023-04-25T06:15:27;3.60;;;2.63;;
80255;SDS011;69564;37.974;23.708;2023-04-25T06:17:53;6.00;;;2.83;;
80255;SDS011;69564;37.974;23.708;2023-04-25T06:20:18;3.17;;;2.60;;
80255;SDS011;69564;37.974;23.708;2023-04-25T06:22:48;9.80;;;3.00;;
80255;SDS011;69564;37.974;23.708;2023-04-25T06:25:14;2.90;;;2.50;;
80255;SDS011;69564;37.974;23.708;2023-04-25T06:27:40;2.63;;;2.42;;
80255;SDS011;69564;37.974;23.708;2023-04-25T06:30:06;4.72;;;2.75;;
80255;SDS011;69564;37.974;23.708;2023-04-25T06:32:32;2.90;;;2.35;;
80255;SDS011;69564;37.974;23.708;2023-04-25T06:34:59;2.60;;;2.40;;
80255;SDS011;69564;37.974;23.708;2023-04-25T06:37:25;5.90;;;2.55;;
80255;SDS011;69564;37.974;23.708;2023-04-25T06:39:51;3.40;;;2.33;;
80255;SDS011;69564;37.974;23.708;2023-04-25T06:42:16;6.55;;;2.50;;
80255;SDS011;69564;37.974;23.708;2023-04-25T06:44:42;2.60;;;2.40;;
80255;SDS011;69564;37.974;23.708;2023-04-25T06:47:08;3.53;;;2.30;;
80255;SDS011;69564;37.974;23.708;2023-04-25T06:49:34;3.35;;;1.98;;
80255;SDS011;69564;37.974;23.708;2023-04-25T06:52:00;2.92;;;1.90;;
80255;SDS011;69564;37.974;23.708;2023-04-25T06:54:25;1.85;;;1.70;;
80255;SDS011;69564;37.974;23.708;2023-04-25T06:56:53;2.42;;;2.22;;
80255;SDS011;69564;37.974;23.708;2023-04-25T06:59:19;3.25;;;2.30;;
80255;SDS011;69564;37.974;23.708;2023-04-25T07:01:45;5.78;;;2.58;;
80255;SDS011;69564;37.974;23.708;2023-04-25T07:04:10;3.90;;;2.83;;
80255;SDS011;69564;37.974;23.708;2023-04-25T07:06:36;5.07;;;2.80;;
80255;SDS011;69564;37.974;23.708;2023-04-25T07:09:07;3.20;;;2.97;;
80255;SDS011;69564;37.974;23.708;2023-04-25T07:11:33;3.97;;;2.63;;
80255;SDS011;69564;37.974;23.708;2023-04-25T07:13:59;6.43;;;3.28;;
80255;SDS011;69564;37.974;23.708;2023-04-25T07:16:25;2.88;;;2.33;;
80255;SDS011;69564;37.974;23.708;2023-04-25T07:18:51;4.97;;;3.17;;
80255;SDS011;69564;37.974;23.708;2023-04-25T07:21:17;3.15;;;2.83;;
80255;SDS011;69564;37.974;23.708;2023-04-25T07:23:42;3.42;;;3.03;;
80255;SDS011;69564;37.974;23.708;2023-04-25T07:26:08;2.40;;;2.20;;
80255;SDS011;69564;37.974;23.708;2023-04-25T07:28:34;2.83;;;2.47;;
80255;SDS011;69564;37.974;23.708;2023-04-25T07:31:00;3.13;;;2.45;;
80255;SDS011;69564;37.974;23.708;2023-04-25T07:33:26;3.47;;;2.50;;
80255;SDS011;69564;37.974;23.708;2023-04-25T07:35:52;2.20;;;2.00;;
80255;SDS011;69564;37.974;23.708;2023-04-25T07:38:18;4.82;;;2.40;;
80255;SDS011;69564;37.974;23.708;2023-04-25T07:40:44;2.05;;;1.95;;
80255;SDS011;69564;37.974;23.708;2023-04-25T07:43:10;5.07;;;2.50;;
80255;SDS011;69564;37.974;23.708;2023-04-25T07:45:39;3.50;;;2.45;;
80255;SDS011;69564;37.974;23.708;2023-04-25T07:48:05;4.80;;;2.25;;
80255;SDS011;69564;37.974;23.708;2023-04-25T07:50:30;2.70;;;2.25;;
80255;SDS011;69564;37.974;23.708;2023-04-25T07:52:56;2.67;;;1.90;;
80255;SDS011;69564;37.974;23.708;2023-04-25T07:55:22;1.98;;;1.88;;
80255;SDS011;69564;37.974;23.708;2023-04-25T07:57:47;2.70;;;2.17;;
80255;SDS011;69564;37.974;23.708;2023-04-25T08:00:13;3.20;;;2.42;;
80255;SDS011;69564;37.974;23.708;2023-04-25T08:02:39;2.05;;;1.80;;
80255;SDS011;69564;37.974;23.708;2023-04-25T08:05:05;3.45;;;2.20;;
80255;SDS011;69564;37.974;23.708;2023-04-25T08:07:33;2.55;;;2.20;;
80255;SDS011;69564;37.974;23.708;2023-04-25T08:10:00;2.42;;;2.22;;
80255;SDS011;69564;37.974;23.708;2023-04-25T08:12:25;2.35;;;1.83;;
80255;SDS011;69564;37.974;23.708;2023-04-25T08:14:51;3.90;;;2.28;;
80255;SDS011;69564;37.974;23.708;2023-04-25T08:17:17;2.30;;;2.15;;
80255;SDS011;69564;37.974;23.708;2023-04-25T08:19:43;3.17;;;2.40;;
80255;SDS011;69564;37.974;23.708;2023-04-25T08:22:08;2.58;;;2.28;;
80255;SDS011;69564;37.974;23.708;2023-04-25T08:24:34;2.13;;;1.92;;
80255;SDS011;69564;37.974;23.708;2023-04-25T08:27:00;2.38;;;2.17;;
80255;SDS011;69564;37.974;23.708;2023-04-25T08:29:25;2.40;;;2.20;;
80255;SDS011;69564;37.974;23.708;2023-04-25T08:31:53;3.05;;;2.42;;
80255;SDS011;69564;37.974;23.708;2023-04-25T08:34:19;2.28;;;2.08;;
80255;SDS011;69564;37.974;23.708;2023-04-25T08:36:45;2.85;;;2.20;;
80255;SDS011;69564;37.974;23.708;2023-04-25T08:39:11;2.97;;;1.98;;
80255;SDS011;69564;37.974;23.708;2023-04-25T08:41:38;3.38;;;2.22;;
80255;SDS011;69564;37.974;23.708;2023-04-25T08:44:05;5.30;;;2.33;;
80255;SDS011;69564;37.974;23.708;2023-04-25T08:46:35;4.10;;;2.00;;
80255;SDS011;69564;37.974;23.708;2023-04-25T08:49:04;2.50;;;1.90;;
80255;SDS011;69564;37.974;23.708;2023-04-25T08:51:33;2.30;;;2.20;;
80255;SDS011;69564;37.974;23.708;2023-04-25T08:54:09;4.13;;;2.13;;
80255;SDS011;69564;37.974;23.708;2023-04-25T08:56:45;1.88;;;1.77;;
80255;SDS011;69564;37.974;23.708;2023-04-25T08:59:12;3.15;;;2.10;;
80255;SDS011;69564;37.974;23.708;2023-04-25T09:01:38;2.97;;;1.90;;
80255;SDS011;69564;37.974;23.708;2023-04-25T09:04:05;2.88;;;1.75;;
80255;SDS011;69564;37.974;23.708;2023-04-25T09:06:31;2.00;;;1.80;;
80255;SDS011;69564;37.974;23.708;2023-04-25T09:09:03;1.95;;;1.85;;
80255;SDS011;69564;37.974;23.708;2023-04-25T09:11:31;3.90;;;2.67;;
80255;SDS011;69564;37.974;23.708;2023-04-25T09:19:34;1.98;;;1.75;;
80255;SDS011;69564;37.974;23.708;2023-04-25T09:22:01;2.97;;;2.05;;
80255;SDS011;69564;37.974;23.708;2023-04-25T09:24:38;5.35;;;2.13;;
80255;SDS011;69564;37.974;23.708;2023-04-25T09:27:27;2.03;;;1.83;;
80255;SDS011;69564;37.974;23.708;2023-04-25T09:29:57;1.95;;;1.77;;
80255;SDS011;69564;37.974;23.708;2023-04-25T09:32:26;2.72;;;2.40;;
80255;SDS011;69564;37.974;23.708;2023-04-25T09:34:52;2.50;;;2.17;;
80255;SDS011;69564;37.974;23.708;2023-04-25T09:37:25;2.33;;;2.13;;
80255;SDS011;69564;37.974;23.708;2023-04-25T09:39:53;3.15;;;2.75;;
80255;SDS011;69564;37.974;23.708;2023-04-25T09:42:24;5.78;;;2.60;;
80255;SDS011;69564;37.974;23.708;2023-04-25T09:44:54;2.72;;;2.20;;
80255;SDS011;69564;37.974;23.708;2023-04-25T09:47:20;4.97;;;2.47;;
80255;SDS011;69564;37.974;23.708;2023-04-25T09:49:49;2.67;;;2.47;;
80255;SDS011;69564;37.974;23.708;2023-04-25T09:52:22;3.83;;;2.30;;
80255;SDS011;69564;37.974;23.708;2023-04-25T09:54:49;2.92;;;2.40;;
80255;SDS011;69564;37.974;23.708;2023-04-25T09:59:51;6.53;;;2.58;;
80255;SDS011;69564;37.974;23.708;2023-04-25T10:02:19;2.55;;;2.35;;
80255;SDS011;69564;37.974;23.708;2023-04-25T10:04:48;3.33;;;2.40;;
80255;SDS011;69564;37.974;23.708;2023-04-25T10:07:19;2.28;;;2.00;;
80255;SDS011;69564;37.974;23.708;2023-04-25T10:09:50;2.50;;;2.30;;
80255;SDS011;69564;37.974;23.708;2023-04-25T10:12:24;2.17;;;2.08;;
80255;SDS011;69564;37.974;23.708;2023-04-25T10:14:51;2.67;;;2.28;;
80255;SDS011;69564;37.974;23.708;2023-04-25T10:17:18;2.50;;;2.15;;
80255;SDS011;69564;37.974;23.708;2023-04-25T10:19:48;2.95;;;2.05;;
80255;SDS011;69564;37.974;23.708;2023-04-25T10:22:17;2.60;;;2.40;;
80255;SDS011;69564;37.974;23.708;2023-04-25T10:24:48;2.58;;;2.38;;
80255;SDS011;69564;37.974;23.708;2023-04-25T10:27:15;2.50;;;2.30;;
80255;SDS011;69564;37.974;23.708;2023-04-25T10:29:41;3.40;;;2.22;;
80255;SDS011;69564;37.974;23.708;2023-04-25T10:32:10;3.75;;;2.28;;
80255;SDS011;69564;37.974;23.708;2023-04-25T10:34:42;2.30;;;1.73;;
80255;SDS011;69564;37.974;23.708;2023-04-25T10:37:12;2.17;;;1.98;;
80255;SDS011;69564;37.974;23.708;2023-04-25T10:39:39;3.65;;;2.22;;
80255;SDS011;69564;37.974;23.708;2023-04-25T10:42:06;2.50;;;2.30;;
80255;SDS011;69564;37.974;23.708;2023-04-25T10:44:36;4.82;;;3.20;;
80255;SDS011;69564;37.974;23.708;2023-04-25T10:47:05;5.28;;;2.88;;
80255;SDS011;69564;37.974;23.708;2023-04-25T10:49:33;4.40;;;2.55;;
80255;SDS011;69564;37.974;23.708;2023-04-25T10:52:18;3.80;;;2.42;;
80255;SDS011;69564;37.974;23.708;2023-04-25T10:54:57;3.65;;;2.53;;
80255;SDS011;69564;37.974;23.708;2023-04-25T10:57:29;3.83;;;2.58;;
80255;SDS011;69564;37.974;23.708;2023-04-25T11:00:11;2.67;;;2.45;;
80255;SDS011;69564;37.974;23.708;2023-04-25T11:05:10;2.33;;;2.13;;
80255;SDS011;69564;37.974;23.708;2023-04-25T11:07:49;3.17;;;2.40;;
80255;SDS011;69564;37.974;23.708;2023-04-25T11:10:17;2.30;;;2.20;;
80255;SDS011;69564;37.974;23.708;2023-04-25T11:12:44;2.70;;;1.85;;
80255;SDS011;69564;37.974;23.708;2023-04-25T11:15:11;3.00;;;2.15;;
80255;SDS011;69564;37.974;23.708;2023-04-25T11:17:37;2.38;;;2.28;;
80255;SDS011;69564;37.974;23.708;2023-04-25T11:20:05;2.38;;;2.17;;
80255;SDS011;69564;37.974;23.708;2023-04-25T11:22:36;2.15;;;1.92;;
80255;SDS011;69564;37.974;23.708;2023-04-25T11:25:06;2.15;;;1.90;;
80255;SDS011;69564;37.974;23.708;2023-04-25T11:27:51;2.83;;;1.92;;
80255;SDS011;69564;37.974;23.708;2023-04-25T11:30:17;2.17;;;1.98;;
80255;SDS011;69564;37.974;23.708;2023-04-25T11:32:44;2.05;;;1.90;;
80255;SDS011;69564;37.974;23.708;2023-04-25T11:35:10;2.85;;;2.30;;
80255;SDS011;69564;37.974;23.708;2023-04-25T11:37:37;2.42;;;1.95;;
80255;SDS011;69564;37.974;23.708;2023-04-25T11:40:05;3.05;;;2.15;;
80255;SDS011;69564;37.974;23.708;2023-04-25T11:42:32;2.75;;;2.33;;
80255;SDS011;69564;37.974;23.708;2023-04-25T11:44:58;2.20;;;2.00;;
80255;SDS011;69564;37.974;23.708;2023-04-25T11:47:34;2.83;;;2.20;;
80255;SDS011;69564;37.974;23.708;2023-04-25T11:50:00;2.42;;;1.80;;
80255;SDS011;69564;37.974;23.708;2023-04-25T11:55:03;2.75;;;1.98;;
80255;SDS011;69564;37.974;23.708;2023-04-25T11:57:31;3.53;;;2.25;;
80255;SDS011;69564;37.974;23.708;2023-04-25T12:02:39;3.17;;;2.00;;
80255;SDS011;69564;37.974;23.708;2023-04-25T12:05:06;2.28;;;1.98;;
80255;SDS011;69564;37.974;23.708;2023-04-25T12:07:33;2.42;;;2.20;;
80255;SDS011;69564;37.974;23.708;2023-04-25T12:10:03;2.63;;;1.90;;
80255;SDS011;69564;37.974;23.708;2023-04-25T12:12:34;2.10;;;1.90;;
80255;SDS011;69564;37.974;23.708;2023-04-25T12:15:09;2.95;;;2.03;;
80255;SDS011;69564;37.974;23.708;2023-04-25T12:20:13;2.17;;;1.98;;
80255;SDS011;69564;37.974;23.708;2023-04-25T12:22:44;3.65;;;2.38;;
80255;SDS011;69564;37.974;23.708;2023-04-25T12:25:12;5.43;;;2.80;;
80255;SDS011;69564;37.974;23.708;2023-04-25T12:27:39;3.70;;;2.60;;
80255;SDS011;69564;37.974;23.708;2023-04-25T12:30:09;2.53;;;2.28;;
80255;SDS011;69564;37.974;23.708;2023-04-25T12:32:35;2.88;;;2.30;;
80255;SDS011;69564;37.974;23.708;2023-04-25T12:35:03;3.45;;;2.65;;
80255;SDS011;69564;37.974;23.708;2023-04-25T12:37:29;5.20;;;2.40;;
80255;SDS011;69564;37.974;23.708;2023-04-25T12:39:55;2.33;;;2.13;;
80255;SDS011;69564;37.974;23.708;2023-04-25T12:42:21;2.95;;;2.33;;
80255;SDS011;69564;37.974;23.708;2023-04-25T12:44:47;2.33;;;2.13;;
80255;SDS011;69564;37.974;23.708;2023-04-25T12:47:13;4.50;;;2.28;;
80255;SDS011;69564;37.974;23.708;2023-04-25T12:49:39;2.67;;;2.22;;
80255;SDS011;69564;37.974;23.708;2023-04-25T12:52:05;2.47;;;2.30;;
80255;SDS011;69564;37.974;23.708;2023-04-25T12:54:31;1.98;;;1.88;;
80255;SDS011;69564;37.974;23.708;2023-04-25T12:56:57;3.67;;;2.30;;
80255;SDS011;69564;37.974;23.708;2023-04-25T12:59:23;2.90;;;2.10;;
80255;SDS011;69564;37.974;23.708;2023-04-25T13:01:49;2.60;;;2.00;;
80255;SDS011;69564;37.974;23.708;2023-04-25T13:04:14;2.15;;;2.03;;
80255;SDS011;69564;37.974;23.708;2023-04-25T13:06:40;2.97;;;2.25;;
80255;SDS011;69564;37.974;23.708;2023-04-25T13:09:06;3.38;;;2.30;;
80255;SDS011;69564;37.974;23.708;2023-04-25T13:11:32;1.83;;;1.67;;
80255;SDS011;69564;37.974;23.708;2023-04-25T13:13:58;4.05;;;1.98;;
80255;SDS011;69564;37.974;23.708;2023-04-25T13:16:23;1.88;;;1.77;;
80255;SDS011;69564;37.974;23.708;2023-04-25T13:18:49;2.17;;;1.88;;
80255;SDS011;69564;37.974;23.708;2023-04-25T13:21:15;3.10;;;2.75;;
80255;SDS011;69564;37.974;23.708;2023-04-25T13:23:40;3.70;;;2.58;;
80255;SDS011;69564;37.974;23.708;2023-04-25T13:26:07;3.88;;;2.50;;
80255;SDS011;69564;37.974;23.708;2023-04-25T13:28:33;2.65;;;2.25;;
80255;SDS011;69564;37.974;23.708;2023-04-25T13:30:59;3.13;;;2.85;;
80255;SDS011;69564;37.974;23.708;2023-04-25T13:33:25;3.08;;;2.40;;
80255;SDS011;69564;37.974;23.708;2023-04-25T13:35:51;2.55;;;2.35;;
80255;SDS011;69564;37.974;23.708;2023-04-25T13:38:22;2.92;;;2.47;;
80255;SDS011;69564;37.974;23.708;2023-04-25T13:40:49;2.35;;;2.00;;
80255;SDS011;69564;37.974;23.708;2023-04-25T13:43:17;3.58;;;2.20;;
80255;SDS011;69564;37.974;23.708;2023-04-25T13:45:49;2.53;;;2.25;;
80255;SDS011;69564;37.974;23.708;2023-04-25T13:48:16;2.35;;;2.05;;
80255;SDS011;69564;37.974;23.708;2023-04-25T13:50:43;4.00;;;2.45;;
80255;SDS011;69564;37.974;23.708;2023-04-25T13:53:08;2.30;;;2.10;;
80255;SDS011;69564;37.974;23.708;2023-04-25T13:55:35;2.33;;;2.10;;
80255;SDS011;69564;37.974;23.708;2023-04-25T13:58:04;2.35;;;2.15;;
80255;SDS011;69564;37.974;23.708;2023-04-25T14:00:33;3.03;;;2.33;;
80255;SDS011;69564;37.974;23.708;2023-04-25T14:03:00;1.90;;;1.80;;
80255;SDS011;69564;37.974;23.708;2023-04-25T14:05:29;2.10;;;2.00;;
80255;SDS011;69564;37.974;23.708;2023-04-25T14:07:55;2.17;;;2.08;;
80255;SDS011;69564;37.974;23.708;2023-04-25T14:10:21;3.58;;;2.40;;
80255;SDS011;69564;37.974;23.708;2023-04-25T14:12:46;2.67;;;2.00;;
80255;SDS011;69564;37.974;23.708;2023-04-25T14:15:12;2.30;;;1.88;;
80255;SDS011;69564;37.974;23.708;2023-04-25T14:17:38;2.17;;;1.98;;
80255;SDS011;69564;37.974;23.708;2023-04-25T14:20:05;3.25;;;2.55;;
80255;SDS011;69564;37.974;23.708;2023-04-25T14:22:32;2.60;;;2.45;;
80255;SDS011;69564;37.974;23.708;2023-04-25T14:24:57;3.05;;;2.70;;
80255;SDS011;69564;37.974;23.708;2023-04-25T14:27:23;2.75;;;2.30;;
80255;SDS011;69564;37.974;23.708;2023-04-25T14:29:49;2.70;;;2.50;;
80255;SDS011;69564;37.974;23.708;2023-04-25T14:32:15;2.38;;;2.15;;
80255;SDS011;69564;37.974;23.708;2023-04-25T14:34:41;2.90;;;2.38;;
80255;SDS011;69564;37.974;23.708;2023-04-25T14:37:06;2.42;;;2.22;;
80255;SDS011;69564;37.974;23.708;2023-04-25T14:39:32;2.83;;;2.63;;
80255;SDS011;69564;37.974;23.708;2023-04-25T14:41:58;3.47;;;2.55;;
80255;SDS011;69564;37.974;23.708;2023-04-25T14:44:24;2.20;;;2.00;;
80255;SDS011;69564;37.974;23.708;2023-04-25T14:46:49;2.20;;;2.10;;
80255;SDS011;69564;37.974;23.708;2023-04-25T14:49:16;2.75;;;2.03;;
80255;SDS011;69564;37.974;23.708;2023-04-25T14:51:42;3.05;;;2.33;;